createdAt,value
2022-11-03T00:01:40.364Z,98592.72
2022-11-03T00:04:10.258Z,98581.66
2022-11-03T00:06:39.936Z,98586.75
2022-11-03T00:09:13.491Z,98585.06
2022-11-03T00:11:44.232Z,98578.31
2022-11-03T00:14:14.975Z,98582.56
2022-11-03T00:16:43.488Z,98563.09
2022-11-03T00:19:13.907Z,98549.47
2022-11-03T00:21:42.587Z,98560.53
2022-11-03T00:24:14.668Z,98559.78
2022-11-03T00:26:43.133Z,98576.72
2022-11-03T00:29:13.986Z,98560.56
2022-11-03T00:31:43.596Z,98569.84
2022-11-03T00:34:13.220Z,98574.06
2022-11-03T00:36:43.833Z,98565.56
2022-11-03T00:39:14.164Z,98560.53
2022-11-03T00:41:43.478Z,98561.31
2022-11-03T00:44:14.824Z,98561.38
2022-11-03T00:46:45.559Z,98547.69
2022-11-03T00:49:15.983Z,98547.69
2022-11-03T00:51:44.977Z,98541.69
2022-11-03T00:54:14.929Z,98533.16
2022-11-03T00:56:44.706Z,98542.50
2022-11-03T00:59:13.508Z,98528.84
2022-11-03T01:01:47.142Z,98545.03
2022-11-03T01:04:33.822Z,98528.00
2022-11-03T01:07:03.121Z,98536.59
2022-11-03T01:09:37.311Z,98534.13
2022-11-03T01:12:07.824Z,98532.41
2022-11-03T01:14:39.619Z,98529.00
2022-11-03T01:17:10.897Z,98526.41
2022-11-03T01:19:40.036Z,98518.72
2022-11-03T01:22:10.872Z,98505.94
2022-11-03T01:24:42.368Z,98494.00
2022-11-03T01:27:13.417Z,98504.16
2022-11-03T01:29:42.870Z,98509.25
2022-11-03T01:32:11.581Z,98505.00
2022-11-03T01:34:40.513Z,98498.22
2022-11-03T01:37:09.605Z,98491.41
2022-11-03T01:39:38.792Z,98472.69
2022-11-03T01:42:09.150Z,98493.91
2022-11-03T01:44:39.094Z,98497.31
2022-11-03T01:47:26.632Z,98479.53
2022-11-03T01:50:00.703Z,98478.69
2022-11-03T01:52:32.077Z,98484.69
2022-11-03T01:55:03.730Z,98466.81
2022-11-03T01:57:37.848Z,98476.19
2022-11-03T02:00:07.867Z,98466.00
2022-11-03T02:02:36.947Z,98463.59
2022-11-03T02:05:07.106Z,98454.16
2022-11-03T02:07:40.001Z,98479.63
2022-11-03T02:10:09.759Z,98472.81
2022-11-03T02:12:41.607Z,98461.72
2022-11-03T02:15:13.292Z,98465.13
2022-11-03T02:17:43.522Z,98452.41
2022-11-03T02:20:16.240Z,98457.56
2022-11-03T02:23:10.038Z,98447.38
2022-11-03T02:25:49.636Z,98451.59
2022-11-03T02:28:21.255Z,98443.69
2022-11-03T02:30:59.303Z,98436.84
2022-11-03T02:33:39.426Z,98426.59
2022-11-03T02:36:14.674Z,98441.81
2022-11-03T02:38:49.725Z,98429.00
2022-11-03T02:41:22.163Z,98434.94
2022-11-03T02:43:52.032Z,98417.13
2022-11-03T02:46:24.012Z,98431.63
2022-11-03T02:48:52.617Z,98430.03
2022-11-03T02:51:21.365Z,98424.97
2022-11-03T02:54:02.709Z,98424.06
2022-11-03T02:56:36.816Z,98418.19
2022-11-03T02:59:10.933Z,98414.81
2022-11-03T03:01:47.660Z,98403.81
2022-11-03T03:04:23.965Z,98390.19
2022-11-03T03:06:59.252Z,98389.28
2022-11-03T03:09:32.234Z,98384.88
2022-11-03T03:12:06.415Z,98395.94
2022-11-03T03:14:40.011Z,98398.38
2022-11-03T03:17:16.433Z,98389.06
2022-11-03T03:19:51.684Z,98379.66
2022-11-03T03:22:26.394Z,98385.56
2022-11-03T03:25:01.640Z,98383.84
2022-11-03T03:27:35.020Z,98380.47
2022-11-03T03:30:06.284Z,98382.19
2022-11-03T03:32:40.187Z,98375.38
2022-11-03T03:35:13.188Z,98369.38
2022-11-03T03:37:47.138Z,98375.25
2022-11-03T03:40:17.913Z,98365.03
2022-11-03T03:42:50.503Z,98366.63
2022-11-03T03:45:21.217Z,98373.38
2022-11-03T03:47:52.501Z,98348.00
2022-11-03T03:50:25.720Z,98359.97
2022-11-03T03:52:57.819Z,98358.31
2022-11-03T03:55:33.279Z,98350.69
2022-11-03T03:58:04.355Z,98342.19
2022-11-03T04:00:33.190Z,98340.47
2022-11-03T04:03:02.149Z,98344.72
2022-11-03T04:05:30.687Z,98345.59
2022-11-03T04:07:59.928Z,98346.44
2022-11-03T04:10:28.320Z,98341.50
2022-11-03T04:13:14.082Z,98342.34
2022-11-03T04:16:01.702Z,98347.66
2022-11-03T04:18:47.898Z,98345.06
2022-11-03T04:21:33.228Z,98351.88
2022-11-03T04:24:02.047Z,98342.56
2022-11-03T04:26:31.142Z,98324.00
2022-11-03T04:29:00.628Z,98328.19
2022-11-03T04:31:32.736Z,98334.25
2022-11-03T04:34:01.287Z,98330.84
2022-11-03T04:36:31.143Z,98318.09
2022-11-03T04:38:59.595Z,98302.72
2022-11-03T04:41:33.288Z,98315.56
2022-11-03T04:44:02.387Z,98312.88
2022-11-03T04:46:33.903Z,98314.34
2022-11-03T04:49:03.450Z,98301.56
2022-11-03T04:51:35.146Z,98308.28
2022-11-03T04:54:05.852Z,98319.31
2022-11-03T04:56:36.084Z,98316.78
2022-11-03T04:59:04.438Z,98303.25
2022-11-03T05:01:34.325Z,98287.94
2022-11-03T05:04:03.414Z,98297.47
2022-11-03T05:06:31.705Z,98285.53
2022-11-03T05:09:03.947Z,98285.50
2022-11-03T05:11:36.972Z,98274.44
2022-11-03T05:14:16.184Z,98271.84
2022-11-03T05:16:47.008Z,98282.03
2022-11-03T05:19:20.851Z,98277.81
2022-11-03T05:21:51.591Z,98267.63
2022-11-03T05:24:26.193Z,98261.72
2022-11-03T05:26:56.247Z,98260.09
2022-11-03T05:29:28.098Z,98250.00
2022-11-03T05:31:59.002Z,98243.19
2022-11-03T05:34:36.805Z,98239.84
2022-11-03T05:37:26.423Z,98249.19
2022-11-03T05:39:59.417Z,98228.09
2022-11-03T05:42:33.684Z,98229.69
2022-11-03T05:45:06.169Z,98216.88
2022-11-03T05:47:39.487Z,98232.94
2022-11-03T05:50:21.184Z,98226.13
2022-11-03T05:52:52.792Z,98231.25
2022-11-03T05:55:34.115Z,98223.63
2022-11-03T05:58:13.649Z,98220.19
2022-11-03T06:00:48.591Z,98218.44
2022-11-03T06:03:25.869Z,98209.16
2022-11-03T06:05:55.778Z,98208.31
2022-11-03T06:08:27.966Z,98198.25
2022-11-03T06:10:58.585Z,98199.16
2022-11-03T06:13:32.355Z,98194.94
2022-11-03T06:16:04.769Z,98196.63
2022-11-03T06:18:37.928Z,98187.31
2022-11-03T06:21:09.751Z,98179.69
2022-11-03T06:23:40.525Z,98203.53
2022-11-03T06:26:20.270Z,98205.28
2022-11-03T06:28:52.168Z,98205.28
2022-11-03T06:31:25.861Z,98202.88
2022-11-03T06:33:57.704Z,98171.47
2022-11-03T06:36:29.390Z,98185.94
2022-11-03T06:39:04.012Z,98193.66
2022-11-03T06:41:37.791Z,98200.50
2022-11-03T06:44:26.798Z,98191.22
2022-11-03T06:46:57.681Z,98199.78
2022-11-03T06:49:37.844Z,98193.84
2022-11-03T06:52:22.609Z,98200.66
2022-11-03T06:54:52.423Z,98204.94
2022-11-03T06:57:21.304Z,98199.84
2022-11-03T07:00:06.574Z,98204.09
2022-11-03T07:02:55.626Z,98187.16
2022-11-03T07:05:27.603Z,98192.25
2022-11-03T07:07:58.341Z,98193.94
2022-11-03T07:10:29.133Z,98188.84
2022-11-03T07:13:02.959Z,98181.22
2022-11-03T07:15:37.602Z,98184.63
2022-11-03T07:18:15.819Z,98185.47
2022-11-03T07:20:45.829Z,98173.56
2022-11-03T07:23:19.446Z,98167.59
2022-11-03T07:25:53.872Z,98166.72
2022-11-03T07:28:26.232Z,98159.97
2022-11-03T07:30:55.748Z,98158.25
2022-11-03T07:33:27.555Z,98162.50
2022-11-03T07:36:16.799Z,98165.03
2022-11-03T07:38:48.752Z,98154.84
2022-11-03T07:41:21.298Z,98146.31
2022-11-03T07:43:56.649Z,98139.47
2022-11-03T07:46:27.424Z,98136.88
2022-11-03T07:49:00.005Z,98130.91
2022-11-03T07:51:33.000Z,98126.63
2022-11-03T07:54:05.056Z,98125.66
2022-11-03T07:56:37.270Z,98128.16
2022-11-03T07:59:30.288Z,98106.88
2022-11-03T08:01:59.967Z,98117.81
2022-11-03T08:04:32.646Z,98107.50
2022-11-03T08:07:03.172Z,98095.56
2022-11-03T08:09:32.372Z,98092.03
2022-11-03T08:12:01.702Z,98080.84
2022-11-03T08:14:31.718Z,98077.25
2022-11-03T08:17:00.633Z,98063.56
2022-11-03T08:19:29.012Z,98059.97
2022-11-03T08:21:58.989Z,98058.09
2022-11-03T08:24:28.925Z,98059.72
2022-11-03T08:26:57.548Z,98062.16
2022-11-03T08:29:28.340Z,98053.38
2022-11-03T08:31:57.436Z,98055.03
2022-11-03T08:34:26.669Z,98057.47
2022-11-03T08:36:56.108Z,98057.28
2022-11-03T08:39:24.550Z,98047.69
2022-11-03T08:41:54.818Z,98040.66
2022-11-03T08:44:23.776Z,98030.06
2022-11-03T08:46:52.665Z,98008.38
2022-11-03T08:49:21.649Z,98008.13
2022-11-03T08:51:50.256Z,98001.53
2022-11-03T08:54:18.942Z,97989.00
2022-11-03T08:56:49.247Z,97995.56
2022-11-03T08:59:20.197Z,97979.91
2022-11-03T09:01:49.779Z,97983.03
2022-11-03T09:04:18.117Z,97984.38
2022-11-03T09:06:56.886Z,97974.03
2022-11-03T09:12:14.975Z,97965.50
2022-11-03T09:14:45.588Z,97968.75
2022-11-03T09:17:14.389Z,97958.94
2022-11-03T09:19:42.958Z,97955.88
2022-11-03T09:22:11.872Z,97948.63
2022-11-03T09:24:40.306Z,97936.97
2022-11-03T09:27:08.798Z,97935.06
2022-11-03T09:30:06.430Z,97926.84
2022-11-03T09:32:28.758Z,97923.88
2022-11-03T09:34:58.145Z,97914.13
2022-11-03T09:37:27.003Z,97918.09
2022-11-03T09:39:55.695Z,97908.59
2022-11-03T09:42:24.708Z,97896.81
2022-11-03T09:44:55.207Z,97895.72
2022-11-03T09:47:26.834Z,97878.31
2022-11-03T09:49:59.310Z,97886.84
2022-11-03T09:52:30.215Z,97893.34
2022-11-03T09:55:00.199Z,97879.97
2022-11-03T09:57:30.694Z,97894.00
2022-11-03T09:59:59.381Z,97900.34
2022-11-03T10:02:31.616Z,97889.13
2022-11-03T10:05:09.835Z,97884.22
2022-11-03T10:07:39.700Z,97876.34
2022-11-03T10:10:09.099Z,97890.47
2022-11-03T10:12:40.159Z,97885.13
2022-11-03T10:15:15.875Z,97889.38
2022-11-03T10:17:45.724Z,97872.44
2022-11-03T10:20:18.043Z,97869.75
2022-11-03T10:22:48.431Z,97857.22
2022-11-03T10:25:31.921Z,97845.09
2022-11-03T10:28:15.879Z,97841.66
2022-11-03T10:31:12.591Z,97838.91
2022-11-03T10:33:47.111Z,97843.31
2022-11-03T10:36:29.250Z,97836.81
2022-11-03T10:38:58.144Z,97844.97
2022-11-03T10:41:28.389Z,97847.34
2022-11-03T10:44:06.351Z,97841.00
2022-11-03T10:46:49.519Z,97847.78
2022-11-03T10:49:21.526Z,97834.91
2022-11-03T10:51:54.425Z,97834.91
2022-11-03T10:54:25.026Z,97832.09
2022-11-03T10:56:54.454Z,97832.06
2022-11-03T10:59:25.924Z,97827.72
2022-11-03T11:01:54.721Z,97814.69
2022-11-03T11:04:23.586Z,97806.16
2022-11-03T11:06:54.593Z,97806.47
2022-11-03T11:09:26.697Z,97804.47
2022-11-03T11:12:03.625Z,97800.38
2022-11-03T11:14:41.551Z,97790.53
2022-11-03T11:17:42.062Z,97787.03
2022-11-03T11:20:35.661Z,97791.81
2022-11-03T11:23:50.358Z,97782.97
2022-11-03T11:26:38.797Z,97777.44
2022-11-03T11:29:44.301Z,97770.34
2022-11-03T11:32:49.493Z,97765.69
2022-11-03T11:36:05.884Z,97760.28
2022-11-03T11:38:57.599Z,97745.69
2022-11-03T11:42:03.130Z,97747.34
2022-11-03T11:44:57.301Z,97746.19
2022-11-03T11:47:49.963Z,97736.19
2022-11-03T11:50:32.022Z,97732.00
2022-11-03T11:53:10.632Z,97742.19
2022-11-03T11:55:57.749Z,97723.78
2022-11-03T11:58:32.426Z,97727.59
2022-11-03T12:01:04.894Z,97716.34
2022-11-03T12:03:40.186Z,97726.69
2022-11-03T12:06:10.771Z,97709.38
2022-11-03T12:08:39.001Z,97697.16
2022-11-03T12:11:09.068Z,97717.47
2022-11-03T12:13:45.351Z,97701.06
2022-11-03T12:19:42.891Z,97694.84
2022-11-03T12:22:13.320Z,97684.03
2022-11-03T12:24:54.802Z,97676.66
2022-11-03T12:27:44.900Z,97669.19
2022-11-03T12:30:20.064Z,97665.59
2022-11-03T12:32:49.774Z,97658.59
2022-11-03T12:35:19.543Z,97656.88
2022-11-03T12:37:49.222Z,97643.34
2022-11-03T12:40:18.979Z,97644.66
2022-11-03T12:42:47.728Z,97636.22
2022-11-03T12:45:15.952Z,97628.72
2022-11-03T12:47:45.250Z,97634.63
2022-11-03T12:50:14.414Z,97635.28
2022-11-03T12:52:44.297Z,97627.28
2022-11-03T12:55:13.411Z,97618.34
2022-11-03T12:57:42.515Z,97628.00
2022-11-03T13:00:12.500Z,97616.41
2022-11-03T13:02:41.487Z,97612.22
2022-11-03T13:05:15.425Z,97603.50
2022-11-03T13:08:06.129Z,97592.19
2022-11-03T13:10:35.380Z,97597.84
2022-11-03T13:13:05.627Z,97587.81
2022-11-03T13:15:34.969Z,97581.13
2022-11-03T13:18:13.320Z,97587.09
2022-11-03T13:20:44.525Z,97571.44
2022-11-03T13:23:17.463Z,97566.56
2022-11-03T13:25:49.003Z,97556.09
2022-11-03T13:28:17.632Z,97549.31
2022-11-03T13:30:48.444Z,97558.41
2022-11-03T13:33:17.141Z,97562.00
2022-11-03T13:35:47.848Z,97546.38
2022-11-03T13:38:17.662Z,97536.69
2022-11-03T13:41:08.177Z,97534.59
2022-11-03T13:43:35.176Z,97536.66
2022-11-03T13:46:05.295Z,97532.91
2022-11-03T13:49:23.417Z,97534.84
2022-11-03T13:51:23.981Z,97531.09
2022-11-03T13:59:36.879Z,97519.34
2022-11-03T14:04:54.856Z,97513.06
2022-11-03T14:07:23.453Z,97517.41
2022-11-03T14:09:55.841Z,97515.03
2022-11-03T14:12:35.213Z,97513.34
2022-11-03T14:15:06.001Z,97509.91
2022-11-03T14:17:34.894Z,97496.41
2022-11-03T14:20:04.984Z,97497.41
2022-11-03T14:22:34.471Z,97494.94
2022-11-03T14:25:06.962Z,97479.94
2022-11-03T14:27:36.267Z,97471.72
2022-11-03T14:30:06.671Z,97478.66
2022-11-03T14:32:35.372Z,97470.22
2022-11-03T14:35:04.352Z,97475.59
2022-11-03T14:37:34.150Z,97471.66
2022-11-03T14:40:05.594Z,97463.88
2022-11-03T14:42:33.204Z,97459.66
2022-11-03T14:45:01.547Z,97448.06
2022-11-03T14:47:31.823Z,97462.56
2022-11-03T14:50:01.247Z,97446.72
2022-11-03T14:52:29.906Z,97452.78
2022-11-03T14:54:59.325Z,97453.88
2022-11-03T14:57:30.925Z,97446.47
2022-11-03T14:59:59.726Z,97455.13
2022-11-03T15:02:28.463Z,97431.19
2022-11-03T15:04:57.247Z,97419.53
2022-11-03T15:07:25.937Z,97419.66
2022-11-03T15:09:55.200Z,97410.69
2022-11-03T15:12:23.521Z,97400.72
2022-11-03T15:14:53.984Z,97413.34
2022-11-03T15:17:23.321Z,97407.53
2022-11-03T15:19:52.050Z,97405.22
2022-11-03T15:22:20.906Z,97400.31
2022-11-03T15:27:40.255Z,97390.38
2022-11-03T15:30:11.276Z,97375.31
2022-11-03T15:32:39.970Z,97370.22
2022-11-03T15:35:09.578Z,97366.94
2022-11-03T15:37:38.073Z,97359.38
2022-11-03T15:40:07.875Z,97351.84
2022-11-03T15:42:36.559Z,97346.00
2022-11-03T15:45:05.786Z,97347.03
2022-11-03T15:47:36.166Z,97328.56
2022-11-03T15:50:04.899Z,97333.56
2022-11-03T15:52:34.100Z,97319.53
2022-11-03T15:55:02.776Z,97327.91
2022-11-03T15:57:31.479Z,97319.41
2022-11-03T16:00:01.570Z,97327.09
2022-11-03T16:02:46.323Z,97310.38
2022-11-03T16:05:24.828Z,97312.00
2022-11-03T16:07:54.204Z,97304.53
2022-11-03T16:10:23.434Z,97304.56
2022-11-03T16:12:52.680Z,97302.19
2022-11-03T16:15:21.371Z,97300.53
2022-11-03T16:17:54.533Z,97290.34
2022-11-03T16:20:27.518Z,97288.69
2022-11-03T16:22:57.192Z,97285.19
2022-11-03T16:25:26.323Z,97290.47
2022-11-03T16:27:55.567Z,97287.09
2022-11-03T16:30:26.515Z,97279.47
2022-11-03T16:32:55.028Z,97272.06
2022-11-03T16:35:24.922Z,97274.66
2022-11-03T16:37:55.059Z,97275.50
2022-11-03T16:40:23.937Z,97262.13
2022-11-03T16:42:52.833Z,97270.47
2022-11-03T16:45:26.935Z,97268.16
2022-11-03T16:47:56.954Z,97267.41
2022-11-03T16:50:27.190Z,97254.75
2022-11-03T16:52:57.523Z,97247.03
2022-11-03T16:55:26.209Z,97232.94
2022-11-03T16:57:56.134Z,97240.47
2022-11-03T17:00:27.068Z,97237.81
2022-11-03T17:02:55.884Z,97229.25
2022-11-03T17:05:25.276Z,97229.34
2022-11-03T17:07:56.242Z,97224.25
2022-11-03T17:10:25.207Z,97232.81
2022-11-03T17:12:56.158Z,97219.22
2022-11-03T17:15:24.966Z,97229.34
2022-11-03T17:17:55.453Z,97231.13
2022-11-03T17:20:24.742Z,97216.75
2022-11-03T17:22:56.059Z,97214.09
2022-11-03T17:25:26.182Z,97212.50
2022-11-03T17:27:59.295Z,97209.06
2022-11-03T17:30:32.940Z,97210.81
2022-11-03T17:33:07.402Z,97207.25
2022-11-03T17:35:39.935Z,97212.50
2022-11-03T17:38:14.265Z,97201.44
2022-11-03T17:40:44.629Z,97184.28
2022-11-03T17:43:24.474Z,97154.50
2022-11-03T17:45:55.138Z,97175.81
2022-11-03T17:48:24.915Z,97168.97
2022-11-03T17:50:57.490Z,97167.19
2022-11-03T17:53:31.505Z,97164.75
2022-11-03T17:56:28.545Z,97153.69
2022-11-03T17:58:52.299Z,97151.91
2022-11-03T18:01:25.299Z,97140.00
2022-11-03T18:03:54.893Z,97144.06
2022-11-03T18:06:24.507Z,97135.41
2022-11-03T18:08:54.652Z,97143.59
2022-11-03T18:11:49.204Z,97130.59
2022-11-03T18:14:19.030Z,97095.03
2022-11-03T18:16:48.975Z,97099.63
2022-11-03T18:19:18.694Z,97107.75
2022-11-03T18:21:49.279Z,97097.00
2022-11-03T18:24:22.396Z,97099.25
2022-11-03T18:26:51.276Z,97097.81
2022-11-03T18:29:22.441Z,97087.63
2022-11-03T18:31:52.609Z,97088.06
2022-11-03T18:34:24.540Z,97087.16
2022-11-03T18:36:55.658Z,97071.91
2022-11-03T18:39:29.070Z,97080.88
2022-11-03T18:41:57.865Z,97070.84
2022-11-03T18:44:29.622Z,97057.94
2022-11-03T18:46:59.873Z,97053.09
2022-11-03T18:49:33.442Z,97052.25
2022-11-03T18:52:04.726Z,97043.47
2022-11-03T18:54:36.959Z,97042.69
2022-11-03T18:57:06.791Z,97040.25
2022-11-03T18:59:39.242Z,97040.25
2022-11-03T19:02:19.304Z,97036.00
2022-11-03T19:04:49.660Z,97034.41
2022-11-03T19:07:25.217Z,97040.38
2022-11-03T19:09:56.049Z,97035.22
2022-11-03T19:12:27.308Z,97023.34
2022-11-03T19:14:57.277Z,97013.00
2022-11-03T19:17:27.624Z,97018.78
2022-11-03T19:19:58.310Z,97012.81
2022-11-03T19:22:28.967Z,97007.75
2022-11-03T19:25:02.183Z,97000.91
2022-11-03T19:27:36.164Z,96997.47
2022-11-03T19:30:06.489Z,96989.66
2022-11-03T19:32:39.423Z,96988.72
2022-11-03T19:35:16.114Z,96985.25
2022-11-03T19:37:46.204Z,96977.91
2022-11-03T19:40:19.730Z,96963.78
2022-11-03T19:42:49.575Z,96959.44
2022-11-03T19:45:20.845Z,96951.66
2022-11-03T19:48:22.374Z,96958.63
2022-11-03T19:50:49.882Z,96962.81
2022-11-03T19:53:23.467Z,96953.47
2022-11-03T19:55:56.548Z,96957.84
2022-11-03T19:58:28.787Z,96945.06
2022-11-03T20:00:58.385Z,96939.84
2022-11-03T20:03:29.218Z,96932.22
2022-11-03T20:06:00.046Z,96937.22
2022-11-03T20:08:31.499Z,96939.16
2022-11-03T20:11:02.391Z,96947.50
2022-11-03T20:13:42.541Z,96945.63
2022-11-03T20:16:14.747Z,96930.97
2022-11-03T20:18:43.986Z,96941.25
2022-11-03T20:21:16.711Z,96935.34
2022-11-03T20:23:47.087Z,96906.56
2022-11-03T20:26:19.918Z,96923.31
2022-11-03T20:28:49.434Z,96928.47
2022-11-03T20:31:19.207Z,96927.63
2022-11-03T20:33:48.500Z,96922.91
2022-11-03T20:36:18.572Z,96933.88
2022-11-03T20:38:53.029Z,96943.19
2022-11-03T20:41:23.079Z,96946.59
2022-11-03T20:43:53.462Z,96931.38
2022-11-03T20:46:26.497Z,96934.44
2022-11-03T20:48:56.641Z,96924.16
2022-11-03T20:51:27.358Z,96932.78
2022-11-03T20:53:59.776Z,96922.50
2022-11-03T20:56:30.935Z,96904.50
2022-11-03T20:58:59.716Z,96904.50
2022-11-03T21:01:33.559Z,96887.19
2022-11-03T21:04:03.943Z,96884.13
2022-11-03T21:06:34.047Z,96879.91
2022-11-03T21:09:02.867Z,96874.81
2022-11-03T21:11:39.939Z,96857.09
2022-11-03T21:14:16.137Z,96885.81
2022-11-03T21:17:01.959Z,96872.75
2022-11-03T21:19:57.905Z,96890.25
2022-11-03T21:22:50.707Z,96881.00
2022-11-03T21:25:22.220Z,96870.84
2022-11-03T21:27:54.155Z,96876.97
2022-11-03T21:30:24.270Z,96883.56
2022-11-03T21:32:52.751Z,96891.34
2022-11-03T21:35:23.038Z,96892.25
2022-11-03T21:37:52.863Z,96880.38
2022-11-03T21:40:21.917Z,96877.03
2022-11-03T21:43:10.846Z,96874.31
2022-11-03T21:45:39.202Z,96878.63
2022-11-03T21:48:25.524Z,96853.41
2022-11-03T21:50:54.422Z,96876.53
2022-11-03T21:53:23.444Z,96899.69
2022-11-03T21:55:54.380Z,96885.91
2022-11-03T21:58:25.208Z,96862.91
2022-11-03T22:00:54.107Z,96858.56
2022-11-03T22:03:23.503Z,96857.72
2022-11-03T22:05:52.058Z,96860.22
2022-11-03T22:08:21.595Z,96865.09
2022-11-03T22:10:51.925Z,96834.91
2022-11-03T22:13:20.640Z,96851.72
2022-11-03T22:16:07.947Z,96850.75
2022-11-03T22:18:36.485Z,96849.94
2022-11-03T22:21:23.079Z,96870.59
2022-11-03T22:24:08.408Z,96898.56
2022-11-03T22:26:54.243Z,96895.94
2022-11-03T22:29:41.137Z,96895.50
2022-11-03T22:32:17.192Z,96892.97
2022-11-03T22:35:03.293Z,96882.44
2022-11-03T22:40:17.312Z,96891.59
2022-11-03T22:43:03.299Z,96873.53
2022-11-03T22:45:49.459Z,96861.88
2022-11-03T22:48:19.789Z,96878.28
2022-11-03T22:50:49.146Z,96898.94
2022-11-03T22:53:35.518Z,96908.63
2022-11-03T22:56:04.599Z,96911.06
2022-11-03T22:58:33.457Z,96910.63
2022-11-03T23:01:05.778Z,96914.69
2022-11-03T23:03:39.565Z,96912.09
2022-11-03T23:06:10.267Z,96911.31
2022-11-03T23:08:42.014Z,96908.06
2022-11-03T23:11:16.650Z,96905.81
2022-11-03T23:13:45.880Z,96874.16
2022-11-03T23:16:18.377Z,96877.50
2022-11-03T23:19:07.009Z,96888.53
2022-11-03T23:21:36.245Z,96897.91
2022-11-03T23:24:22.779Z,96907.28
2022-11-03T23:26:54.974Z,96914.16
2022-11-03T23:29:24.194Z,96906.53
2022-11-03T23:31:53.139Z,96910.13
2022-11-03T23:34:23.569Z,96918.59
2022-11-03T23:36:52.663Z,96925.66
2022-11-03T23:39:22.282Z,96933.41
2022-11-03T23:41:52.024Z,96940.94
2022-11-03T23:44:20.994Z,96938.53
2022-11-03T23:47:07.480Z,96935.94
2022-11-03T23:49:38.318Z,96939.38
2022-11-03T23:52:07.085Z,96935.16
2022-11-03T23:54:35.824Z,96931.78
2022-11-03T23:57:21.913Z,96935.94
2022-11-03T23:59:51.524Z,96928.47
